Time;durP1;ratioP1;P1;durP2;ratioP2;P2;SDS_P1;SDS_P2;PMS_P1;PMS_P2;Temp;Humidity;BMP_temperature;BMP_pressure;BME280_temperature;BME280_humidity;BME280_pressure;Samples;Min_cycle;Max_cycle;Signal;HPM_P1;HPM_P2
2022/03/07 00:01:28;;;;;;;2.40;2.30;;;25.10;41.10;;;;;;5033911;28;20960;-81
2022/03/07 00:03:55;;;;;;;2.53;2.33;;;25.10;41.10;;;;;;5033826;28;20496;-82
2022/03/07 00:06:22;;;;;;;2.73;2.13;;;25.00;41.10;;;;;;5034074;28;20538;-82
2022/03/07 00:08:49;;;;;;;2.60;2.40;;;25.00;41.10;;;;;;5033843;28;20985;-82
2022/03/07 00:11:17;;;;;;;2.60;2.37;;;25.00;41.10;;;;;;5033818;28;20496;-82
2022/03/07 00:13:44;;;;;;;2.20;2.00;;;25.00;41.10;;;;;;5033754;28;20443;-82
2022/03/07 00:16:11;;;;;;;2.80;2.60;;;25.00;41.10;;;;;;5033655;28;20458;-82
2022/03/07 00:18:39;;;;;;;2.03;1.93;;;25.20;41.20;;;;;;5033762;28;20493;-82
2022/03/07 00:21:07;;;;;;;2.17;1.93;;;25.00;41.10;;;;;;5033670;28;20445;-82
2022/03/07 00:23:34;;;;;;;2.40;2.07;;;25.00;41.10;;;;;;5033545;28;20993;-81
2022/03/07 00:26:01;;;;;;;2.57;2.37;;;25.00;41.10;;;;;;5033790;28;20439;-82
2022/03/07 00:28:28;;;;;;;2.60;2.30;;;25.00;41.10;;;;;;5033452;28;20439;-83
2022/03/07 00:30:55;;;;;;;2.70;2.50;;;25.00;41.10;;;;;;5033351;28;20438;-83
2022/03/07 00:33:21;;;;;;;2.70;2.50;;;25.00;41.10;;;;;;5033460;28;20442;-82
2022/03/07 00:35:49;;;;;;;2.63;2.43;;;25.00;41.10;;;;;;5033493;28;20446;-82
2022/03/07 00:38:16;;;;;;;2.50;2.30;;;25.10;41.20;;;;;;5033355;28;20458;-82
2022/03/07 00:40:43;;;;;;;2.17;2.07;;;24.90;41.10;;;;;;5033200;28;20804;-82
2022/03/07 00:43:10;;;;;;;2.33;2.13;;;24.90;41.10;;;;;;5033205;28;20800;-83
2022/03/07 00:45:37;;;;;;;2.63;2.43;;;24.90;41.10;;;;;;5033414;28;20454;-82
2022/03/07 00:48:05;;;;;;;2.40;2.20;;;24.90;41.00;;;;;;5033428;28;20434;-83
2022/03/07 00:50:32;;;;;;;3.03;2.70;;;24.90;41.00;;;;;;5033172;28;20449;-82
2022/03/07 00:53:01;;;;;;;2.03;1.93;;;24.90;41.10;;;;;;5033007;28;20835;-82
2022/03/07 00:55:28;;;;;;;2.57;2.37;;;24.90;41.00;;;;;;5033021;28;20456;-82
2022/03/07 00:57:55;;;;;;;3.10;2.90;;;24.90;41.00;;;;;;5032731;28;20445;-82
2022/03/07 01:00:22;;;;;;;2.57;2.37;;;24.90;41.00;;;;;;5033063;28;20797;-83
2022/03/07 01:02:49;;;;;;;2.70;2.50;;;24.90;41.10;;;;;;5033098;28;20445;-83
2022/03/07 01:05:16;;;;;;;2.43;2.23;;;24.90;41.10;;;;;;5032926;28;20490;-82
2022/03/07 01:07:42;;;;;;;2.50;2.30;;;24.90;41.00;;;;;;5032989;28;20458;-82
2022/03/07 01:10:11;;;;;;;2.73;2.53;;;24.90;41.00;;;;;;5033233;28;20447;-82
2022/03/07 01:12:39;;;;;;;2.57;2.37;;;24.80;41.00;;;;;;5033225;28;20446;-82
2022/03/07 01:15:10;;;;;;;2.50;2.30;;;24.90;41.00;;;;;;5033026;28;20953;-82
2022/03/07 01:17:38;;;;;;;2.47;2.27;;;24.80;40.90;;;;;;5033016;28;20439;-82
2022/03/07 01:20:07;;;;;;;2.70;2.50;;;24.80;40.90;;;;;;5032807;28;20807;-82
2022/03/07 01:22:34;;;;;;;2.43;2.23;;;24.80;40.90;;;;;;5032844;28;20450;-82
2022/03/07 01:25:01;;;;;;;3.07;2.60;;;24.80;41.00;;;;;;5032818;28;20486;-82
2022/03/07 01:27:29;;;;;;;2.60;2.40;;;24.80;40.90;;;;;;5032587;28;20443;-82
2022/03/07 01:29:55;;;;;;;2.57;2.37;;;24.80;41.00;;;;;;5032723;28;20447;-82
2022/03/07 01:32:22;;;;;;;2.90;2.70;;;24.80;41.00;;;;;;5033078;28;20438;-82
2022/03/07 01:34:49;;;;;;;2.30;2.10;;;24.80;41.00;;;;;;5032611;28;20922;-82
2022/03/07 01:37:16;;;;;;;2.20;2.00;;;24.80;40.90;;;;;;5032741;28;20481;-82
2022/03/07 01:39:43;;;;;;;2.23;2.03;;;24.80;41.00;;;;;;5032645;28;20438;-82
2022/03/07 01:42:10;;;;;;;2.77;2.57;;;24.80;41.00;;;;;;5032734;28;20457;-82
2022/03/07 01:44:39;;;;;;;2.00;1.90;;;24.80;41.00;;;;;;5032500;28;20491;-82
2022/03/07 01:47:06;;;;;;;2.37;2.17;;;24.80;41.00;;;;;;5032745;28;20439;-83
2022/03/07 01:49:33;;;;;;;2.40;2.20;;;24.80;41.00;;;;;;5032646;28;20532;-82
2022/03/07 01:52:00;;;;;;;2.07;1.97;;;24.80;41.00;;;;;;5032433;28;21037;-82
2022/03/07 01:54:27;;;;;;;2.27;2.07;;;24.80;41.00;;;;;;5032541;28;20442;-82
2022/03/07 01:56:55;;;;;;;2.37;2.17;;;24.70;40.90;;;;;;5032581;28;20900;-82
2022/03/07 01:59:24;;;;;;;2.60;2.40;;;24.80;41.00;;;;;;5032053;28;20948;-82
2022/03/07 02:01:53;;;;;;;2.80;2.60;;;24.70;40.90;;;;;;5032796;28;20790;-82
2022/03/07 02:04:20;;;;;;;2.60;2.40;;;24.70;40.90;;;;;;5032383;28;20493;-82
2022/03/07 02:06:48;;;;;;;2.70;2.50;;;24.70;40.90;;;;;;5032530;28;20446;-81
2022/03/07 02:09:16;;;;;;;2.60;2.40;;;24.70;40.90;;;;;;5032474;28;20469;-82
2022/03/07 02:11:44;;;;;;;2.40;2.20;;;24.70;40.90;;;;;;5035846;28;20443;-81
2022/03/07 02:14:12;;;;;;;2.87;2.63;;;24.70;40.90;;;;;;5035920;28;20442;-81
2022/03/07 02:16:39;;;;;;;2.23;2.13;;;24.70;40.90;;;;;;5035984;28;20929;-81
2022/03/07 02:19:08;;;;;;;2.40;2.20;;;24.70;40.90;;;;;;5018069;28;20450;-81
2022/03/07 02:21:35;;;;;;;2.37;2.17;;;24.70;40.90;;;;;;5035852;28;20434;-82
2022/03/07 02:24:04;;;;;;;1.93;1.83;;;24.70;40.90;;;;;;5035786;28;20486;-82
2022/03/07 02:26:31;;;;;;;2.27;2.13;;;24.70;40.90;;;;;;5035961;28;20954;-83
2022/03/07 02:28:58;;;;;;;2.40;2.20;;;24.70;40.90;;;;;;5035799;28;20458;-82
2022/03/07 02:31:25;;;;;;;2.33;2.23;;;24.70;40.90;;;;;;5036016;28;20791;-82
2022/03/07 02:33:52;;;;;;;2.73;2.53;;;24.70;40.90;;;;;;5035708;28;20453;-82
2022/03/07 02:36:19;;;;;;;2.50;2.33;;;24.60;40.90;;;;;;5035734;28;20459;-82
2022/03/07 02:38:46;;;;;;;2.47;2.27;;;24.70;41.00;;;;;;5035330;28;20442;-82
2022/03/07 02:41:14;;;;;;;2.73;2.50;;;24.70;40.90;;;;;;5035530;28;20447;-82
2022/03/07 02:43:41;;;;;;;2.33;2.13;;;24.70;40.90;;;;;;5035424;28;20446;-83
2022/03/07 02:46:08;;;;;;;2.93;2.30;;;24.80;41.00;;;;;;5035376;28;21015;-83
2022/03/07 02:48:35;;;;;;;2.77;2.57;;;24.70;40.90;;;;;;5035396;28;20446;-82
2022/03/07 02:51:01;;;;;;;2.90;2.60;;;24.70;40.90;;;;;;5035076;28;20439;-81
2022/03/07 02:53:29;;;;;;;1.93;1.83;;;24.80;41.00;;;;;;5035260;28;20451;-82
2022/03/07 02:55:56;;;;;;;2.10;1.90;;;24.70;40.80;;;;;;5035254;28;20442;-82
2022/03/07 02:58:25;;;;;;;2.73;2.53;;;24.70;40.80;;;;;;5035123;28;20968;-82
2022/03/07 03:00:52;;;;;;;2.30;2.20;;;24.70;40.80;;;;;;5035108;28;20797;-82
2022/03/07 03:03:19;;;;;;;2.43;2.23;;;24.70;40.80;;;;;;5035044;28;20930;-82
2022/03/07 03:05:45;;;;;;;2.20;2.00;;;24.80;40.90;;;;;;5034886;28;20989;-82
2022/03/07 03:08:12;;;;;;;2.40;2.20;;;24.70;40.80;;;;;;5034971;28;20478;-82
2022/03/07 03:10:39;;;;;;;2.80;2.60;;;24.70;40.80;;;;;;5035182;28;20788;-82
2022/03/07 03:13:06;;;;;;;2.20;2.10;;;24.70;40.80;;;;;;5034868;28;20439;-82
2022/03/07 03:15:34;;;;;;;2.63;2.43;;;24.70;40.70;;;;;;5034914;28;20438;-82
2022/03/07 03:18:01;;;;;;;2.47;2.30;;;24.80;40.80;;;;;;5034718;28;20458;-82
2022/03/07 03:20:28;;;;;;;2.80;2.60;;;24.80;40.80;;;;;;5034434;28;20438;-82
2022/03/07 03:22:54;;;;;;;2.83;2.63;;;24.80;40.70;;;;;;5034695;28;20445;-82
2022/03/07 03:25:22;;;;;;;2.20;2.10;;;24.90;40.80;;;;;;5034484;28;20508;-82
2022/03/07 03:27:48;;;;;;;2.43;2.23;;;24.80;40.70;;;;;;5034635;28;20447;-82
2022/03/07 03:30:15;;;;;;;2.57;2.37;;;24.80;40.70;;;;;;5034498;28;20441;-82
2022/03/07 03:32:44;;;;;;;2.37;2.17;;;24.90;40.80;;;;;;5034385;28;20443;-82
2022/03/07 03:35:11;;;;;;;1.90;1.80;;;24.80;40.70;;;;;;5034446;28;20459;-82
2022/03/07 03:37:38;;;;;;;2.20;2.00;;;24.90;40.70;;;;;;5034344;28;20447;-82
2022/03/07 03:40:06;;;;;;;2.13;2.03;;;24.90;40.70;;;;;;5034502;28;20503;-82
2022/03/07 03:42:33;;;;;;;2.30;2.20;;;24.90;40.60;;;;;;5034249;28;20954;-82
2022/03/07 03:45:00;;;;;;;2.90;2.60;;;24.90;40.60;;;;;;5034227;28;20478;-82
2022/03/07 03:47:27;;;;;;;3.00;2.77;;;24.90;40.60;;;;;;5034417;28;20439;-82
2022/03/07 03:49:55;;;;;;;2.30;2.20;;;24.90;40.60;;;;;;5034249;28;20964;-82
2022/03/07 03:52:23;;;;;;;2.17;2.07;;;24.90;40.60;;;;;;5034011;28;20479;-82
2022/03/07 03:54:50;;;;;;;2.10;2.00;;;24.90;40.60;;;;;;5034278;28;20838;-82
2022/03/07 03:57:18;;;;;;;2.40;2.23;;;24.90;40.60;;;;;;5034005;28;20534;-82
2022/03/07 03:59:45;;;;;;;2.43;2.33;;;24.90;40.60;;;;;;5034025;28;20438;-82
2022/03/07 04:02:11;;;;;;;2.00;1.90;;;24.90;40.50;;;;;;5034019;28;20445;-82
2022/03/07 04:04:38;;;;;;;2.27;2.10;;;25.00;40.50;;;;;;5033790;28;20489;-82
2022/03/07 04:07:06;;;;;;;2.43;2.23;;;24.90;40.40;;;;;;5033901;28;20450;-82
2022/03/07 04:09:33;;;;;;;1.90;1.80;;;25.00;40.50;;;;;;5033742;28;20478;-82
2022/03/07 04:12:00;;;;;;;2.23;2.10;;;25.00;40.50;;;;;;5033741;28;20447;-82
2022/03/07 04:14:27;;;;;;;2.20;2.00;;;25.00;40.50;;;;;;5033956;28;20447;-82
2022/03/07 04:16:54;;;;;;;2.43;2.23;;;25.00;40.50;;;;;;5033840;28;20451;-82
2022/03/07 04:19:21;;;;;;;2.50;2.30;;;25.00;40.50;;;;;;5033519;28;20808;-82
2022/03/07 04:21:48;;;;;;;2.33;2.13;;;25.00;40.50;;;;;;5032101;28;20442;-82
2022/03/07 04:24:17;;;;;;;2.10;2.00;;;25.00;40.50;;;;;;5032577;28;20443;-82
2022/03/07 04:26:44;;;;;;;2.03;1.93;;;24.90;40.40;;;;;;5031929;28;20434;-81
2022/03/07 04:29:11;;;;;;;2.37;2.17;;;24.90;40.50;;;;;;5032064;28;20430;-82
2022/03/07 04:31:39;;;;;;;2.10;2.00;;;25.00;40.50;;;;;;5029284;28;20439;-81
2022/03/07 04:34:08;;;;;;;2.17;2.07;;;25.00;40.50;;;;;;5030969;28;20445;-81
2022/03/07 04:36:36;;;;;;;2.60;2.40;;;25.00;40.30;;;;;;5031818;28;20435;-82
2022/03/07 04:39:03;;;;;;;2.10;2.00;;;25.00;40.30;;;;;;5031708;28;20461;-82
2022/03/07 04:41:31;;;;;;;1.90;1.80;;;25.10;40.30;;;;;;5031858;28;20443;-81
2022/03/07 04:43:58;;;;;;;2.20;2.10;;;25.10;40.30;;;;;;5031661;28;20439;-81
2022/03/07 04:46:25;;;;;;;1.80;1.70;;;25.10;40.30;;;;;;5029016;28;21020;-82
2022/03/07 04:48:52;;;;;;;2.50;2.30;;;25.10;40.20;;;;;;5031588;28;20486;-82
2022/03/07 04:51:19;;;;;;;2.30;2.10;;;25.10;40.10;;;;;;5036196;28;20540;-82
2022/03/07 04:53:46;;;;;;;2.30;2.10;;;25.20;40.10;;;;;;5052789;28;20442;-81
2022/03/07 04:56:12;;;;;;;2.40;2.20;;;25.20;40.20;;;;;;5053333;28;20442;-82
2022/03/07 04:58:40;;;;;;;1.90;1.80;;;25.20;40.10;;;;;;5045348;28;20449;-82
2022/03/07 05:01:09;;;;;;;2.13;1.93;;;25.30;40.10;;;;;;5043920;28;20434;-81
2022/03/07 05:03:36;;;;;;;2.20;2.00;;;25.30;40.00;;;;;;5051978;28;20452;-81
2022/03/07 05:06:03;;;;;;;2.30;2.10;;;25.30;40.00;;;;;;5049410;28;20485;-81
2022/03/07 05:08:30;;;;;;;2.50;2.40;;;25.30;40.00;;;;;;5044449;28;20430;-81
2022/03/07 05:10:57;;;;;;;2.60;2.40;;;25.40;39.90;;;;;;5042324;28;20960;-81
2022/03/07 05:13:24;;;;;;;2.40;2.30;;;25.40;39.90;;;;;;5041576;28;20924;-81
2022/03/07 05:15:52;;;;;;;2.20;2.07;;;25.40;39.90;;;;;;5041843;28;20444;-81
2022/03/07 05:18:18;;;;;;;2.20;2.10;;;25.40;39.80;;;;;;5040309;28;20441;-81
2022/03/07 05:20:45;;;;;;;1.80;1.70;;;25.40;39.80;;;;;;5042588;28;20813;-81
2022/03/07 05:23:12;;;;;;;1.70;1.60;;;25.40;39.80;;;;;;5040862;28;20945;-81
2022/03/07 05:25:39;;;;;;;2.10;1.97;;;25.50;39.80;;;;;;5042485;28;20477;-81
2022/03/07 05:28:05;;;;;;;2.03;1.93;;;25.50;39.80;;;;;;5043253;28;20442;-81
2022/03/07 05:30:32;;;;;;;2.27;2.07;;;25.50;39.70;;;;;;5040217;28;20790;-81
2022/03/07 05:33:01;;;;;;;2.40;2.20;;;25.50;39.80;;;;;;5033037;28;20443;-81
2022/03/07 05:35:29;;;;;;;2.50;2.30;;;25.50;39.80;;;;;;5032929;28;20466;-83
2022/03/07 05:37:56;;;;;;;2.33;2.20;;;25.50;39.70;;;;;;5033108;28;20757;-81
2022/03/07 05:40:23;;;;;;;1.90;1.80;;;25.50;39.70;;;;;;5033160;28;20441;-82
2022/03/07 05:42:50;;;;;;;1.97;1.87;;;25.50;39.60;;;;;;5033048;28;20565;-82
2022/03/07 05:45:16;;;;;;;2.27;2.10;;;25.50;39.60;;;;;;5035795;28;20473;-81
2022/03/07 05:47:44;;;;;;;2.40;2.20;;;25.50;39.50;;;;;;5036708;28;20927;-83
2022/03/07 05:50:13;;;;;;;2.13;1.93;;;25.50;39.60;;;;;;5036734;28;20534;-83
2022/03/07 05:52:40;;;;;;;2.23;2.03;;;25.50;39.50;;;;;;5036282;28;20479;-83
2022/03/07 05:55:08;;;;;;;2.10;2.00;;;25.60;39.60;;;;;;5036663;28;20812;-82
2022/03/07 05:57:35;;;;;;;1.97;1.87;;;25.60;39.60;;;;;;5036540;28;20449;-83
2022/03/07 06:00:04;;;;;;;1.90;1.80;;;25.50;39.60;;;;;;5036662;28;20453;-82
2022/03/07 06:02:31;;;;;;;2.23;2.03;;;25.50;39.70;;;;;;5036398;28;20446;-83
2022/03/07 06:04:57;;;;;;;2.10;2.00;;;25.50;39.70;;;;;;5036417;28;20892;-83
2022/03/07 06:07:25;;;;;;;2.77;2.57;;;25.50;39.80;;;;;;5036571;28;20964;-83
2022/03/07 06:09:52;;;;;;;3.17;2.23;;;25.60;39.70;;;;;;5036336;28;20439;-83
2022/03/07 06:12:19;;;;;;;2.20;2.00;;;25.50;40.10;;;;;;5036495;28;20801;-83
2022/03/07 06:14:46;;;;;;;2.30;2.10;;;25.50;40.20;;;;;;5036155;28;20457;-83
2022/03/07 06:17:12;;;;;;;2.30;2.10;;;25.50;40.30;;;;;;5036188;28;20445;-83
2022/03/07 06:19:39;;;;;;;2.47;2.37;;;25.60;40.30;;;;;;5036109;28;20446;-83
2022/03/07 06:22:06;;;;;;;2.10;1.90;;;25.60;40.30;;;;;;5036106;28;20545;-83
2022/03/07 06:24:34;;;;;;;2.40;2.20;;;25.60;40.30;;;;;;5036219;28;20453;-83
2022/03/07 06:27:02;;;;;;;2.77;2.27;;;25.60;40.30;;;;;;5036305;28;20488;-83
2022/03/07 06:29:28;;;;;;;2.43;2.23;;;25.60;40.30;;;;;;5036205;28;20451;-83
2022/03/07 06:31:55;;;;;;;2.57;2.40;;;25.70;40.40;;;;;;5035870;28;20443;-83
2022/03/07 06:34:22;;;;;;;2.00;1.90;;;25.70;40.40;;;;;;5035959;28;20463;-83
2022/03/07 06:36:50;;;;;;;2.70;2.50;;;25.60;40.40;;;;;;5036075;28;20803;-83
2022/03/07 06:39:17;;;;;;;2.40;2.30;;;25.60;40.50;;;;;;5035910;28;20453;-82
2022/03/07 06:41:45;;;;;;;2.60;2.40;;;25.70;40.50;;;;;;5035869;28;20442;-83
2022/03/07 06:44:12;;;;;;;2.70;2.30;;;25.70;41.20;;;;;;5036117;28;20442;-82
2022/03/07 06:46:39;;;;;;;3.03;1.90;;;25.70;40.40;;;;;;5035811;28;20493;-82
2022/03/07 06:49:06;;;;;;;2.63;2.43;;;25.70;40.40;;;;;;5035976;28;20431;-82
2022/03/07 06:51:33;;;;;;;2.53;2.20;;;25.70;40.40;;;;;;5035600;28;20461;-82
2022/03/07 06:53:59;;;;;;;3.90;2.77;;;25.70;40.40;;;;;;5035854;28;20542;-82
2022/03/07 06:56:26;;;;;;;3.00;2.70;;;25.80;40.40;;;;;;5034939;28;20442;-82
2022/03/07 06:58:54;;;;;;;2.60;2.40;;;25.70;40.80;;;;;;5035426;28;20450;-82
2022/03/07 07:01:21;;;;;;;4.13;2.97;;;25.80;41.00;;;;;;5035696;28;20442;-88
2022/03/07 07:03:48;;;;;;;3.80;2.80;;;25.70;40.40;;;;;;5035679;28;20833;-86
2022/03/07 07:06:15;;;;;;;6.33;2.97;;;25.80;40.80;;;;;;5035488;28;20540;-86
2022/03/07 07:08:42;;;;;;;3.33;3.03;;;25.80;40.90;;;;;;5035741;28;20468;-93
2022/03/07 07:11:09;;;;;;;3.67;2.60;;;25.80;40.90;;;;;;5035778;28;20797;-89
2022/03/07 07:13:36;;;;;;;7.27;3.10;;;25.80;41.00;;;;;;5036072;28;20481;-88
2022/03/07 07:16:04;;;;;;;3.60;2.90;;;25.80;41.60;;;;;;5035086;28;20451;-87
2022/03/07 07:18:31;;;;;;;6.70;3.00;;;25.80;40.80;;;;;;5037707;28;20442;-84
2022/03/07 07:20:58;;;;;;;3.93;2.60;;;25.90;40.90;;;;;;5037258;28;20435;-87
2022/03/07 07:23:25;;;;;;;3.10;2.60;;;25.80;40.90;;;;;;5035349;28;20465;-84
2022/03/07 07:25:54;;;;;;;3.43;2.57;;;25.90;40.80;;;;;;5034956;28;20509;-91
2022/03/07 07:28:20;;;;;;;4.00;2.60;;;26.00;40.70;;;;;;5036451;28;20470;-91
2022/03/07 07:30:47;;;;;;;4.03;2.90;;;26.00;40.70;;;;;;5041093;28;20530;-94
2022/03/07 07:33:16;;;;;;;2.87;2.13;;;26.00;40.70;;;;;;5034882;28;20463;-94
2022/03/07 07:35:43;;;;;;;3.07;2.77;;;26.00;40.60;;;;;;5035502;28;20478;-85
2022/03/07 07:38:10;;;;;;;2.83;2.40;;;26.00;40.50;;;;;;5034738;28;20443;-86
2022/03/07 07:40:37;;;;;;;2.93;2.20;;;26.00;40.50;;;;;;5035348;28;20447;-81
2022/03/07 07:43:04;;;;;;;2.90;2.60;;;26.00;40.40;;;;;;5034798;28;20439;-85
2022/03/07 07:45:31;;;;;;;6.10;3.50;;;26.10;40.40;;;;;;5034647;28;20434;-85
2022/03/07 07:47:59;;;;;;;3.70;2.77;;;26.10;40.20;;;;;;5034547;28;20438;-83
2022/03/07 07:50:28;;;;;;;2.80;2.60;;;26.10;40.20;;;;;;5034546;28;20442;-83
2022/03/07 07:52:55;;;;;;;3.73;2.63;;;26.10;39.80;;;;;;5034055;28;20486;-82
2022/03/07 07:55:22;;;;;;;4.80;2.43;;;26.20;39.90;;;;;;5034556;28;20496;-84
2022/03/07 07:57:49;;;;;;;3.63;2.50;;;26.20;39.60;;;;;;5034549;28;20453;-82
2022/03/07 08:00:19;;;;;;;4.93;2.60;;;26.30;39.60;;;;;;5033255;28;20450;-83
2022/03/07 08:02:47;;;;;;;2.63;2.43;;;26.30;39.60;;;;;;5033033;28;20435;-83
2022/03/07 08:05:14;;;;;;;2.53;2.33;;;26.30;39.70;;;;;;5033039;28;20470;-84
2022/03/07 08:07:43;;;;;;;2.57;2.37;;;26.40;39.80;;;;;;5033333;28;20490;-82
2022/03/07 08:10:10;;;;;;;3.10;2.80;;;26.40;39.80;;;;;;5033408;28;20443;-83
2022/03/07 08:12:37;;;;;;;2.50;2.30;;;26.40;39.80;;;;;;5033391;28;20473;-83
2022/03/07 08:15:05;;;;;;;4.13;2.50;;;26.40;40.50;;;;;;5033917;28;20449;-83
2022/03/07 08:17:32;;;;;;;4.10;2.67;;;26.50;40.00;;;;;;5034288;28;20443;-82
2022/03/07 08:19:59;;;;;;;3.10;2.27;;;26.50;40.10;;;;;;5033985;28;20449;-83
2022/03/07 08:22:25;;;;;;;2.60;2.40;;;26.60;40.10;;;;;;5034062;28;20434;-83
2022/03/07 08:24:53;;;;;;;3.37;2.20;;;26.60;40.00;;;;;;5033648;28;20447;-83
2022/03/07 08:27:20;;;;;;;3.90;2.23;;;26.70;40.10;;;;;;5033516;28;20494;-83
2022/03/07 08:29:47;;;;;;;3.40;2.00;;;26.70;40.00;;;;;;5034120;28;20458;-82
2022/03/07 08:32:14;;;;;;;3.90;2.93;;;26.70;40.00;;;;;;5033800;28;20925;-82
2022/03/07 08:34:40;;;;;;;2.33;2.00;;;26.80;40.00;;;;;;5033605;28;20977;-83
2022/03/07 08:37:07;;;;;;;2.60;1.90;;;26.80;40.00;;;;;;5033656;28;20435;-83
2022/03/07 08:39:34;;;;;;;2.70;2.50;;;26.90;40.00;;;;;;5033489;28;20449;-83
2022/03/07 08:42:02;;;;;;;3.83;2.30;;;27.00;39.90;;;;;;5033864;28;20446;-83
2022/03/07 08:44:29;;;;;;;2.50;2.03;;;27.10;39.90;;;;;;5033414;28;20803;-83
2022/03/07 08:46:56;;;;;;;2.43;2.10;;;27.50;39.70;;;;;;5033595;28;20486;-86
2022/03/07 08:49:23;;;;;;;2.23;1.97;;;28.10;39.30;;;;;;5033509;28;20438;-85
2022/03/07 08:51:49;;;;;;;2.60;2.40;;;28.90;38.70;;;;;;5042269;28;20504;-85
2022/03/07 08:54:17;;;;;;;2.07;1.83;;;29.60;38.00;;;;;;5053440;28;20805;-83
2022/03/07 08:56:44;;;;;;;2.50;2.30;;;30.40;37.50;;;;;;5053331;28;20472;-83
2022/03/07 08:59:12;;;;;;;2.00;1.80;;;31.00;37.00;;;;;;5053587;28;20849;-83
2022/03/07 09:01:39;;;;;;;2.20;2.00;;;31.40;37.20;;;;;;5053418;28;20950;-83
2022/03/07 09:04:06;;;;;;;2.50;2.30;;;31.70;36.30;;;;;;5053137;28;20480;-83
2022/03/07 09:06:33;;;;;;;2.20;2.00;;;32.00;36.10;;;;;;5053059;28;21059;-85
2022/03/07 09:08:59;;;;;;;1.87;1.50;;;32.30;36.00;;;;;;5053038;28;20462;-83
2022/03/07 09:11:26;;;;;;;2.63;1.77;;;32.50;35.70;;;;;;5053189;28;20434;-83
2022/03/07 09:13:53;;;;;;;2.10;1.90;;;32.80;35.60;;;;;;5053195;28;20438;-83
2022/03/07 09:16:21;;;;;;;2.37;1.90;;;33.10;35.40;;;;;;5052934;28;20441;-85
2022/03/07 09:18:48;;;;;;;2.07;1.97;;;33.30;35.10;;;;;;5053644;28;20441;-83
2022/03/07 09:21:15;;;;;;;1.70;1.60;;;33.50;35.10;;;;;;5057120;28;20447;-84
2022/03/07 09:23:42;;;;;;;3.20;2.00;;;33.50;34.90;;;;;;5057163;28;20435;-83
2022/03/07 09:26:10;;;;;;;2.00;1.80;;;33.50;34.80;;;;;;5057181;28;20458;-83
2022/03/07 09:28:37;;;;;;;2.00;1.80;;;33.40;34.90;;;;;;5057119;28;20505;-84
2022/03/07 09:31:04;;;;;;;1.60;1.40;;;33.10;35.00;;;;;;5057127;28;20469;-83
2022/03/07 09:33:33;;;;;;;1.77;1.57;;;32.70;35.20;;;;;;5057115;28;20603;-83
2022/03/07 09:36:00;;;;;;;1.77;1.50;;;32.20;35.60;;;;;;5057321;28;20457;-83
2022/03/07 09:38:28;;;;;;;2.33;1.57;;;31.70;36.00;;;;;;5056774;28;20449;-84
2022/03/07 09:40:55;;;;;;;2.37;1.80;;;31.20;36.40;;;;;;5056801;28;20438;-84
2022/03/07 09:43:22;;;;;;;2.67;1.80;;;30.70;36.80;;;;;;5056860;28;20434;-83
2022/03/07 09:45:49;;;;;;;2.03;1.60;;;30.40;37.20;;;;;;5057021;28;20445;-83
2022/03/07 09:48:17;;;;;;;2.00;1.80;;;30.00;37.50;;;;;;5056569;28;20504;-83
2022/03/07 09:50:45;;;;;;;1.80;1.70;;;29.70;37.80;;;;;;5056504;28;20437;-83
2022/03/07 09:53:13;;;;;;;2.00;1.80;;;29.50;38.10;;;;;;5036656;28;20443;-83
2022/03/07 09:55:40;;;;;;;1.87;1.77;;;29.30;38.30;;;;;;5036751;28;20442;-83
2022/03/07 09:58:08;;;;;;;2.03;1.67;;;29.20;38.50;;;;;;5036607;28;20449;-83
2022/03/07 10:00:35;;;;;;;1.70;1.30;;;29.00;38.70;;;;;;5036358;28;20500;-87
2022/03/07 10:03:05;;;;;;;2.13;1.77;;;28.90;38.70;;;;;;5036429;28;21003;-85
2022/03/07 10:05:35;;;;;;;2.40;1.67;;;28.80;38.90;;;;;;5036417;28;20471;-86
2022/03/07 10:08:04;;;;;;;1.40;1.30;;;28.70;39.10;;;;;;5036553;28;20493;-87
2022/03/07 10:10:32;;;;;;;1.43;1.30;;;28.60;39.10;;;;;;5036567;28;20443;-85
2022/03/07 10:13:06;;;;;;;1.50;1.33;;;28.50;39.20;;;;;;5036477;28;20439;-85
2022/03/07 10:15:33;;;;;;;1.50;1.40;;;28.50;39.30;;;;;;5036466;28;20936;-85
2022/03/07 10:18:00;;;;;;;1.70;1.43;;;28.40;39.30;;;;;;5036138;28;20446;-85
2022/03/07 10:20:27;;;;;;;1.87;1.40;;;28.40;39.40;;;;;;5036188;28;20454;-85
2022/03/07 10:22:56;;;;;;;2.80;1.53;;;28.40;39.50;;;;;;5036249;28;20788;-85
2022/03/07 10:25:27;;;;;;;2.30;1.53;;;28.40;39.50;;;;;;5036178;28;20450;-85
2022/03/07 10:27:55;;;;;;;1.87;1.10;;;28.40;39.50;;;;;;5035960;28;20493;-85
2022/03/07 10:30:24;;;;;;;1.67;1.57;;;28.40;39.60;;;;;;5034797;28;21314;-85
2022/03/07 10:32:55;;;;;;;1.20;1.10;;;28.40;39.60;;;;;;5036120;28;20449;-86
2022/03/07 10:35:25;;;;;;;1.30;1.20;;;28.40;39.70;;;;;;5035749;28;20467;-85
2022/03/07 10:37:56;;;;;;;1.63;1.53;;;28.40;39.70;;;;;;5036090;28;20795;-86
2022/03/07 10:40:25;;;;;;;1.40;1.30;;;28.40;39.70;;;;;;5036072;28;20439;-85
2022/03/07 10:42:53;;;;;;;1.50;1.40;;;28.40;39.70;;;;;;5036156;28;20445;-85
2022/03/07 10:45:21;;;;;;;1.30;1.10;;;28.40;39.70;;;;;;5035709;28;20439;-85
2022/03/07 10:47:52;;;;;;;1.40;1.20;;;28.40;39.80;;;;;;5035852;28;20494;-87
2022/03/07 10:50:21;;;;;;;1.30;1.20;;;28.50;39.90;;;;;;5036095;28;20460;-85
2022/03/07 10:52:50;;;;;;;1.93;1.60;;;28.50;39.90;;;;;;5035377;28;20474;-85
2022/03/07 10:55:25;;;;;;;1.43;1.33;;;28.60;39.90;;;;;;5035552;28;20476;-85
2022/03/07 10:57:52;;;;;;;2.37;1.10;;;28.50;39.90;;;;;;5035793;28;20449;-86
2022/03/07 11:00:21;;;;;;;1.53;1.43;;;28.50;39.90;;;;;;5035344;28;20784;-85
2022/03/07 11:02:50;;;;;;;1.60;1.37;;;28.50;39.90;;;;;;5035333;28;20454;-85
2022/03/07 11:05:18;;;;;;;1.50;1.20;;;28.60;40.00;;;;;;5035390;28;20482;-85
2022/03/07 11:07:46;;;;;;;1.47;1.23;;;28.60;40.00;;;;;;5035374;28;20489;-85
2022/03/07 11:10:15;;;;;;;1.27;1.17;;;28.60;40.00;;;;;;5035303;28;20462;-85
2022/03/07 11:12:44;;;;;;;1.30;1.20;;;28.60;40.00;;;;;;5035257;28;20435;-85
2022/03/07 11:15:14;;;;;;;1.20;1.10;;;28.60;40.00;;;;;;5034962;28;20438;-85
2022/03/07 11:17:43;;;;;;;1.37;1.17;;;28.70;40.10;;;;;;5035094;28;20431;-85
2022/03/07 11:20:14;;;;;;;1.57;1.47;;;28.60;40.10;;;;;;5035118;28;20969;-85
2022/03/07 11:22:41;;;;;;;1.30;1.20;;;28.70;40.10;;;;;;5035180;28;20865;-85
2022/03/07 11:25:09;;;;;;;1.20;1.10;;;28.70;40.10;;;;;;5035138;28;20443;-86
2022/03/07 11:27:37;;;;;;;1.33;1.10;;;28.70;40.20;;;;;;5035169;28;20818;-86
2022/03/07 11:30:17;;;;;;;1.10;0.90;;;28.70;40.20;;;;;;5035358;28;20789;-85
2022/03/07 11:32:44;;;;;;;1.10;0.90;;;28.70;40.20;;;;;;5035284;28;20431;-85
2022/03/07 11:35:11;;;;;;;1.47;1.30;;;28.70;40.20;;;;;;5034874;28;20454;-85
2022/03/07 11:37:38;;;;;;;1.60;1.17;;;28.70;40.30;;;;;;5034419;28;20439;-87
2022/03/07 11:40:20;;;;;;;1.50;1.00;;;28.70;40.30;;;;;;5034675;28;20446;-83
2022/03/07 11:42:47;;;;;;;1.20;1.07;;;28.70;40.30;;;;;;5034504;28;20446;-82
2022/03/07 11:45:18;;;;;;;1.40;1.30;;;28.70;40.30;;;;;;5034674;28;20438;-83
2022/03/07 11:47:47;;;;;;;1.13;0.90;;;28.70;40.30;;;;;;5034321;28;20489;-83
2022/03/07 11:50:18;;;;;;;1.13;0.90;;;28.70;40.40;;;;;;5034439;28;20461;-84
2022/03/07 11:52:45;;;;;;;1.30;1.00;;;28.70;40.40;;;;;;5050217;28;20505;-84
2022/03/07 11:55:16;;;;;;;1.30;1.00;;;28.70;40.40;;;;;;5054325;28;20438;-84
2022/03/07 11:57:44;;;;;;;1.27;1.13;;;28.70;40.40;;;;;;5054205;28;20481;-84
2022/03/07 12:00:18;;;;;;;1.40;1.10;;;28.70;39.10;;;;;;5061721;28;20456;-85
2022/03/07 12:02:48;;;;;;;1.50;1.00;;;28.70;40.00;;;;;;5054329;28;20453;-84
2022/03/07 12:05:28;;;;;;;2.90;1.43;;;28.70;40.10;;;;;;5054339;28;20457;-84
2022/03/07 12:08:08;;;;;;;2.00;1.10;;;28.70;38.80;;;;;;5053972;28;20492;-84
2022/03/07 12:10:35;;;;;;;3.23;0.93;;;28.70;39.50;;;;;;5054267;28;20434;-84
2022/03/07 12:13:10;;;;;;;1.40;1.10;;;28.60;39.60;;;;;;5054355;28;20449;-84
2022/03/07 12:15:49;;;;;;;1.40;1.03;;;28.60;39.50;;;;;;5054051;28;20441;-92
2022/03/07 12:18:17;;;;;;;1.20;1.00;;;28.60;39.30;;;;;;5053943;28;20437;-82
2022/03/07 12:20:52;;;;;;;1.10;1.00;;;28.60;37.00;;;;;;5051775;28;20440;-82
2022/03/07 12:23:20;;;;;;;1.10;0.93;;;28.30;36.40;;;;;;5039369;28;20450;-82
2022/03/07 12:25:48;;;;;;;3.30;1.20;;;28.30;36.50;;;;;;5037864;28;20446;-82
2022/03/07 12:28:15;;;;;;;1.47;1.00;;;28.20;36.40;;;;;;5041674;28;20856;-83
2022/03/07 12:30:42;;;;;;;2.93;1.30;;;28.10;36.40;;;;;;5037525;28;20500;-82
2022/03/07 12:33:11;;;;;;;1.47;1.03;;;28.10;36.50;;;;;;5034151;28;20465;-81
2022/03/07 12:35:38;;;;;;;2.70;1.00;;;28.10;36.40;;;;;;5033338;28;20446;-82
2022/03/07 12:38:08;;;;;;;1.20;1.00;;;28.00;36.50;;;;;;5034408;28;21004;-83
2022/03/07 12:40:39;;;;;;;1.30;1.00;;;28.00;36.60;;;;;;5051428;28;20940;-81
2022/03/07 12:43:08;;;;;;;1.57;1.00;;;28.00;36.60;;;;;;5051942;28;20916;-81
2022/03/07 12:45:45;;;;;;;1.50;1.17;;;27.90;36.80;;;;;;5052177;28;20508;-81
2022/03/07 12:48:13;;;;;;;1.40;0.90;;;27.90;37.40;;;;;;5052323;28;20546;-81
2022/03/07 12:50:40;;;;;;;1.20;1.00;;;27.80;36.70;;;;;;5052148;28;20990;-81